sensor_id;sensor_type;location;lat;lon;timestamp;temperature;humidity
5494;DHT22;2769;49.864;8.656;2022-08-21T00:01:39;22.90;99.90
5494;DHT22;2769;49.864;8.656;2022-08-21T00:04:26;22.80;99.90
5494;DHT22;2769;49.864;8.656;2022-08-21T00:07:15;22.70;99.90
5494;DHT22;2769;49.864;8.656;2022-08-21T00:10:01;22.80;99.90
5494;DHT22;2769;49.864;8.656;2022-08-21T00:12:49;22.90;99.90
5494;DHT22;2769;49.864;8.656;2022-08-21T00:15:37;22.70;99.90
5494;DHT22;2769;49.864;8.656;2022-08-21T00:18:25;22.80;99.90
5494;DHT22;2769;49.864;8.656;2022-08-21T00:21:13;22.70;99.90
5494;DHT22;2769;49.864;8.656;2022-08-21T00:24:00;22.60;99.90
5494;DHT22;2769;49.864;8.656;2022-08-21T00:26:47;22.40;99.90
5494;DHT22;2769;49.864;8.656;2022-08-21T00:29:33;22.20;99.90
5494;DHT22;2769;49.864;8.656;2022-08-21T00:32:21;22.40;99.90
5494;DHT22;2769;49.864;8.656;2022-08-21T00:35:13;22.30;99.90
5494;DHT22;2769;49.864;8.656;2022-08-21T00:38:00;22.40;99.90
5494;DHT22;2769;49.864;8.656;2022-08-21T00:40:50;22.40;99.90
5494;DHT22;2769;49.864;8.656;2022-08-21T00:43:38;22.30;99.90
5494;DHT22;2769;49.864;8.656;2022-08-21T00:46:25;22.40;99.90
5494;DHT22;2769;49.864;8.656;2022-08-21T00:49:12;22.40;99.90
5494;DHT22;2769;49.864;8.656;2022-08-21T00:52:01;22.30;99.90
5494;DHT22;2769;49.864;8.656;2022-08-21T00:54:48;22.10;99.90
5494;DHT22;2769;49.864;8.656;2022-08-21T00:57:39;22.20;99.90
5494;DHT22;2769;49.864;8.656;2022-08-21T01:00:35;22.20;99.90
5494;DHT22;2769;49.864;8.656;2022-08-21T01:03:24;22.20;99.90
5494;DHT22;2769;49.864;8.656;2022-08-21T01:06:11;22.20;99.90
5494;DHT22;2769;49.864;8.656;2022-08-21T01:08:59;22.00;99.90
5494;DHT22;2769;49.864;8.656;2022-08-21T01:11:46;22.00;99.90
5494;DHT22;2769;49.864;8.656;2022-08-21T01:14:33;22.00;99.90
5494;DHT22;2769;49.864;8.656;2022-08-21T01:17:20;22.00;99.90
5494;DHT22;2769;49.864;8.656;2022-08-21T01:20:10;22.00;99.90
5494;DHT22;2769;49.864;8.656;2022-08-21T01:22:58;22.00;99.90
5494;DHT22;2769;49.864;8.656;2022-08-21T01:25:45;22.00;99.90
5494;DHT22;2769;49.864;8.656;2022-08-21T01:28:34;22.10;99.90
5494;DHT22;2769;49.864;8.656;2022-08-21T01:31:25;21.90;99.90
5494;DHT22;2769;49.864;8.656;2022-08-21T01:34:13;21.90;99.90
5494;DHT22;2769;49.864;8.656;2022-08-21T01:37:01;21.90;99.90
5494;DHT22;2769;49.864;8.656;2022-08-21T01:39:49;21.80;99.90
5494;DHT22;2769;49.864;8.656;2022-08-21T01:42:37;21.80;99.90
5494;DHT22;2769;49.864;8.656;2022-08-21T01:45:23;21.90;99.90
5494;DHT22;2769;49.864;8.656;2022-08-21T01:48:10;21.80;99.90
5494;DHT22;2769;49.864;8.656;2022-08-21T01:50:57;21.60;99.90
5494;DHT22;2769;49.864;8.656;2022-08-21T01:53:44;21.60;99.90
5494;DHT22;2769;49.864;8.656;2022-08-21T01:56:37;21.60;99.90
5494;DHT22;2769;49.864;8.656;2022-08-21T01:59:24;21.60;99.90
5494;DHT22;2769;49.864;8.656;2022-08-21T02:02:11;21.60;99.90
5494;DHT22;2769;49.864;8.656;2022-08-21T02:04:57;21.60;99.90
5494;DHT22;2769;49.864;8.656;2022-08-21T02:07:47;21.70;99.90
5494;DHT22;2769;49.864;8.656;2022-08-21T02:10:34;21.70;99.90
5494;DHT22;2769;49.864;8.656;2022-08-21T02:13:22;21.70;99.90
5494;DHT22;2769;49.864;8.656;2022-08-21T02:16:09;21.70;99.90
5494;DHT22;2769;49.864;8.656;2022-08-21T02:19:01;21.50;99.90
5494;DHT22;2769;49.864;8.656;2022-08-21T02:21:48;21.60;99.90
5494;DHT22;2769;49.864;8.656;2022-08-21T02:24:35;21.70;99.90
5494;DHT22;2769;49.864;8.656;2022-08-21T02:27:41;21.70;99.90
5494;DHT22;2769;49.864;8.656;2022-08-21T02:30:32;21.70;99.90
5494;DHT22;2769;49.864;8.656;2022-08-21T02:33:19;21.70;99.90
5494;DHT22;2769;49.864;8.656;2022-08-21T02:36:08;21.70;99.90
5494;DHT22;2769;49.864;8.656;2022-08-21T02:38:55;21.60;99.90
5494;DHT22;2769;49.864;8.656;2022-08-21T02:41:42;21.60;99.90
5494;DHT22;2769;49.864;8.656;2022-08-21T02:44:28;21.60;99.90
5494;DHT22;2769;49.864;8.656;2022-08-21T02:47:20;21.50;99.90
5494;DHT22;2769;49.864;8.656;2022-08-21T02:50:07;21.20;99.90
5494;DHT22;2769;49.864;8.656;2022-08-21T02:52:54;21.20;99.90
5494;DHT22;2769;49.864;8.656;2022-08-21T02:55:42;21.30;99.90
5494;DHT22;2769;49.864;8.656;2022-08-21T02:58:30;21.30;99.90
5494;DHT22;2769;49.864;8.656;2022-08-21T03:01:18;21.30;99.90
5494;DHT22;2769;49.864;8.656;2022-08-21T03:04:06;21.30;99.90
5494;DHT22;2769;49.864;8.656;2022-08-21T03:06:53;21.30;99.90
5494;DHT22;2769;49.864;8.656;2022-08-21T03:09:39;21.40;99.90
5494;DHT22;2769;49.864;8.656;2022-08-21T03:12:40;21.40;99.90
5494;DHT22;2769;49.864;8.656;2022-08-21T03:15:26;21.40;99.90
5494;DHT22;2769;49.864;8.656;2022-08-21T03:18:13;21.20;99.90
5494;DHT22;2769;49.864;8.656;2022-08-21T03:21:02;21.10;99.90
5494;DHT22;2769;49.864;8.656;2022-08-21T03:23:49;21.10;99.90
5494;DHT22;2769;49.864;8.656;2022-08-21T03:26:35;21.20;99.90
5494;DHT22;2769;49.864;8.656;2022-08-21T03:29:25;21.10;99.90
5494;DHT22;2769;49.864;8.656;2022-08-21T03:32:12;21.00;99.90
5494;DHT22;2769;49.864;8.656;2022-08-21T03:34:59;21.10;99.90
5494;DHT22;2769;49.864;8.656;2022-08-21T03:37:47;21.00;99.90
5494;DHT22;2769;49.864;8.656;2022-08-21T03:40:34;21.00;99.90
5494;DHT22;2769;49.864;8.656;2022-08-21T03:43:21;21.00;99.90
5494;DHT22;2769;49.864;8.656;2022-08-21T03:46:08;21.00;99.90
5494;DHT22;2769;49.864;8.656;2022-08-21T03:48:54;20.80;99.90
5494;DHT22;2769;49.864;8.656;2022-08-21T03:51:41;20.80;99.90
5494;DHT22;2769;49.864;8.656;2022-08-21T03:54:29;20.80;99.90
5494;DHT22;2769;49.864;8.656;2022-08-21T03:57:15;20.90;99.90
5494;DHT22;2769;49.864;8.656;2022-08-21T04:00:03;21.00;99.90
5494;DHT22;2769;49.864;8.656;2022-08-21T04:02:53;20.90;99.90
5494;DHT22;2769;49.864;8.656;2022-08-21T04:05:41;21.00;99.90
5494;DHT22;2769;49.864;8.656;2022-08-21T04:08:27;21.10;99.90
5494;DHT22;2769;49.864;8.656;2022-08-21T04:11:16;21.00;99.90
5494;DHT22;2769;49.864;8.656;2022-08-21T04:14:03;21.00;99.90
5494;DHT22;2769;49.864;8.656;2022-08-21T04:16:49;21.00;99.90
5494;DHT22;2769;49.864;8.656;2022-08-21T04:19:36;21.00;99.90
5494;DHT22;2769;49.864;8.656;2022-08-21T04:22:22;20.90;99.90
5494;DHT22;2769;49.864;8.656;2022-08-21T04:25:09;20.70;99.90
5494;DHT22;2769;49.864;8.656;2022-08-21T04:27:57;20.60;99.90
5494;DHT22;2769;49.864;8.656;2022-08-21T04:30:44;20.60;99.90
5494;DHT22;2769;49.864;8.656;2022-08-21T04:33:31;20.70;99.90
5494;DHT22;2769;49.864;8.656;2022-08-21T04:36:18;20.80;99.90
5494;DHT22;2769;49.864;8.656;2022-08-21T04:39:09;20.80;99.90
5494;DHT22;2769;49.864;8.656;2022-08-21T04:41:55;20.60;99.90
5494;DHT22;2769;49.864;8.656;2022-08-21T04:44:43;20.50;99.90
5494;DHT22;2769;49.864;8.656;2022-08-21T04:47:30;20.70;99.90
5494;DHT22;2769;49.864;8.656;2022-08-21T04:50:40;20.80;99.90
5494;DHT22;2769;49.864;8.656;2022-08-21T04:53:33;20.80;99.90
5494;DHT22;2769;49.864;8.656;2022-08-21T04:56:22;20.70;99.90
5494;DHT22;2769;49.864;8.656;2022-08-21T04:59:13;20.70;99.90
5494;DHT22;2769;49.864;8.656;2022-08-21T05:02:04;20.60;99.90
5494;DHT22;2769;49.864;8.656;2022-08-21T05:04:52;20.60;99.90
5494;DHT22;2769;49.864;8.656;2022-08-21T05:07:42;20.70;99.90
5494;DHT22;2769;49.864;8.656;2022-08-21T05:10:29;20.70;99.90
5494;DHT22;2769;49.864;8.656;2022-08-21T05:13:18;20.80;99.90
5494;DHT22;2769;49.864;8.656;2022-08-21T05:16:05;20.80;99.90
5494;DHT22;2769;49.864;8.656;2022-08-21T05:18:53;20.80;99.90
5494;DHT22;2769;49.864;8.656;2022-08-21T05:21:42;20.70;99.90
5494;DHT22;2769;49.864;8.656;2022-08-21T05:24:29;20.80;99.90
5494;DHT22;2769;49.864;8.656;2022-08-21T05:27:15;20.80;99.90
5494;DHT22;2769;49.864;8.656;2022-08-21T05:30:03;20.80;99.90
5494;DHT22;2769;49.864;8.656;2022-08-21T05:32:56;20.70;99.90
5494;DHT22;2769;49.864;8.656;2022-08-21T05:35:44;20.90;99.90
5494;DHT22;2769;49.864;8.656;2022-08-21T05:38:32;21.00;99.90
5494;DHT22;2769;49.864;8.656;2022-08-21T05:41:19;21.10;99.90
5494;DHT22;2769;49.864;8.656;2022-08-21T05:44:06;21.40;99.90
5494;DHT22;2769;49.864;8.656;2022-08-21T05:46:54;21.50;99.90
5494;DHT22;2769;49.864;8.656;2022-08-21T05:49:41;21.50;99.90
5494;DHT22;2769;49.864;8.656;2022-08-21T05:52:29;21.50;99.90
5494;DHT22;2769;49.864;8.656;2022-08-21T05:55:16;21.60;99.90
5494;DHT22;2769;49.864;8.656;2022-08-21T05:58:02;21.50;99.90
5494;DHT22;2769;49.864;8.656;2022-08-21T06:00:51;21.60;99.90
5494;DHT22;2769;49.864;8.656;2022-08-21T06:03:40;21.60;99.90
5494;DHT22;2769;49.864;8.656;2022-08-21T06:06:27;21.60;99.90
5494;DHT22;2769;49.864;8.656;2022-08-21T06:09:15;21.60;99.90
5494;DHT22;2769;49.864;8.656;2022-08-21T06:12:04;21.90;99.90
5494;DHT22;2769;49.864;8.656;2022-08-21T06:14:50;21.80;99.90
5494;DHT22;2769;49.864;8.656;2022-08-21T06:17:37;21.70;99.90
5494;DHT22;2769;49.864;8.656;2022-08-21T06:20:24;21.90;99.90
5494;DHT22;2769;49.864;8.656;2022-08-21T06:23:10;22.00;99.90
5494;DHT22;2769;49.864;8.656;2022-08-21T06:25:59;22.30;99.90
5494;DHT22;2769;49.864;8.656;2022-08-21T06:28:45;22.30;99.90
5494;DHT22;2769;49.864;8.656;2022-08-21T06:31:32;22.40;99.90
5494;DHT22;2769;49.864;8.656;2022-08-21T06:34:18;22.50;99.90
5494;DHT22;2769;49.864;8.656;2022-08-21T06:37:06;22.40;99.90
5494;DHT22;2769;49.864;8.656;2022-08-21T06:39:52;22.60;99.90
5494;DHT22;2769;49.864;8.656;2022-08-21T06:42:41;22.60;99.90
5494;DHT22;2769;49.864;8.656;2022-08-21T06:45:28;22.80;99.90
5494;DHT22;2769;49.864;8.656;2022-08-21T06:48:17;22.70;99.90
5494;DHT22;2769;49.864;8.656;2022-08-21T06:51:04;22.80;99.90
5494;DHT22;2769;49.864;8.656;2022-08-21T06:53:51;22.90;99.90
5494;DHT22;2769;49.864;8.656;2022-08-21T06:56:37;22.70;99.90
5494;DHT22;2769;49.864;8.656;2022-08-21T06:59:25;22.90;99.90
5494;DHT22;2769;49.864;8.656;2022-08-21T07:02:12;23.00;99.90
5494;DHT22;2769;49.864;8.656;2022-08-21T07:04:59;23.10;99.90
5494;DHT22;2769;49.864;8.656;2022-08-21T07:07:59;23.30;99.90
5494;DHT22;2769;49.864;8.656;2022-08-21T07:10:46;23.20;99.90
5494;DHT22;2769;49.864;8.656;2022-08-21T07:13:34;23.00;99.90
5494;DHT22;2769;49.864;8.656;2022-08-21T07:16:22;23.00;99.90
5494;DHT22;2769;49.864;8.656;2022-08-21T07:19:09;23.30;99.90
5494;DHT22;2769;49.864;8.656;2022-08-21T07:22:00;23.30;99.90
5494;DHT22;2769;49.864;8.656;2022-08-21T07:24:47;23.60;99.90
5494;DHT22;2769;49.864;8.656;2022-08-21T07:27:33;23.50;99.90
5494;DHT22;2769;49.864;8.656;2022-08-21T07:30:20;23.80;99.90
5494;DHT22;2769;49.864;8.656;2022-08-21T07:33:08;23.80;99.90
5494;DHT22;2769;49.864;8.656;2022-08-21T07:35:55;23.90;99.90
5494;DHT22;2769;49.864;8.656;2022-08-21T07:38:41;24.10;99.90
5494;DHT22;2769;49.864;8.656;2022-08-21T07:41:29;24.30;99.90
5494;DHT22;2769;49.864;8.656;2022-08-21T07:44:17;24.40;99.90
5494;DHT22;2769;49.864;8.656;2022-08-21T07:47:03;24.60;99.90
5494;DHT22;2769;49.864;8.656;2022-08-21T07:49:52;24.70;99.90
5494;DHT22;2769;49.864;8.656;2022-08-21T07:52:39;25.10;99.90
5494;DHT22;2769;49.864;8.656;2022-08-21T07:55:25;25.00;99.90
5494;DHT22;2769;49.864;8.656;2022-08-21T07:58:12;25.10;99.90
5494;DHT22;2769;49.864;8.656;2022-08-21T08:00:58;25.40;99.90
5494;DHT22;2769;49.864;8.656;2022-08-21T08:03:46;25.60;99.90
5494;DHT22;2769;49.864;8.656;2022-08-21T08:06:34;25.90;99.90
5494;DHT22;2769;49.864;8.656;2022-08-21T08:09:21;26.20;99.90
5494;DHT22;2769;49.864;8.656;2022-08-21T08:12:08;26.70;99.90
5494;DHT22;2769;49.864;8.656;2022-08-21T08:14:56;27.30;99.90
5494;DHT22;2769;49.864;8.656;2022-08-21T08:17:45;27.80;99.90
5494;DHT22;2769;49.864;8.656;2022-08-21T08:20:35;28.00;99.80
5494;DHT22;2769;49.864;8.656;2022-08-21T08:23:23;28.80;98.70
5494;DHT22;2769;49.864;8.656;2022-08-21T08:26:10;29.10;97.70
5494;DHT22;2769;49.864;8.656;2022-08-21T08:28:57;29.50;96.40
5494;DHT22;2769;49.864;8.656;2022-08-21T08:31:43;30.00;95.00
5494;DHT22;2769;49.864;8.656;2022-08-21T08:34:30;29.90;94.10
5494;DHT22;2769;49.864;8.656;2022-08-21T08:37:17;30.50;93.10
5494;DHT22;2769;49.864;8.656;2022-08-21T08:40:10;30.30;92.80
5494;DHT22;2769;49.864;8.656;2022-08-21T08:42:59;30.20;91.80
5494;DHT22;2769;49.864;8.656;2022-08-21T08:45:49;30.50;91.90
5494;DHT22;2769;49.864;8.656;2022-08-21T08:48:45;31.10;90.50
5494;DHT22;2769;49.864;8.656;2022-08-21T08:51:42;31.60;89.00
5494;DHT22;2769;49.864;8.656;2022-08-21T08:54:32;31.40;87.80
5494;DHT22;2769;49.864;8.656;2022-08-21T08:57:23;31.00;88.00
5494;DHT22;2769;49.864;8.656;2022-08-21T09:00:13;30.90;88.10
5494;DHT22;2769;49.864;8.656;2022-08-21T09:03:02;30.50;89.20
5494;DHT22;2769;49.864;8.656;2022-08-21T09:05:55;30.00;90.00
5494;DHT22;2769;49.864;8.656;2022-08-21T09:08:49;29.80;90.60
5494;DHT22;2769;49.864;8.656;2022-08-21T09:11:44;29.30;91.20
5494;DHT22;2769;49.864;8.656;2022-08-21T09:14:51;30.10;88.50
5494;DHT22;2769;49.864;8.656;2022-08-21T09:17:59;31.10;80.90
5494;DHT22;2769;49.864;8.656;2022-08-21T09:21:02;32.40;77.30
5494;DHT22;2769;49.864;8.656;2022-08-21T09:23:56;33.40;74.40
5494;DHT22;2769;49.864;8.656;2022-08-21T09:26:49;33.30;71.00
5494;DHT22;2769;49.864;8.656;2022-08-21T09:29:41;33.00;70.90
5494;DHT22;2769;49.864;8.656;2022-08-21T09:32:30;32.20;72.80
5494;DHT22;2769;49.864;8.656;2022-08-21T09:35:23;31.10;76.30
5494;DHT22;2769;49.864;8.656;2022-08-21T09:38:10;30.40;80.00
5494;DHT22;2769;49.864;8.656;2022-08-21T09:41:02;30.60;80.60
5494;DHT22;2769;49.864;8.656;2022-08-21T09:43:52;31.40;75.90
5494;DHT22;2769;49.864;8.656;2022-08-21T09:46:50;31.90;75.00
5494;DHT22;2769;49.864;8.656;2022-08-21T09:49:39;32.50;74.40
5494;DHT22;2769;49.864;8.656;2022-08-21T09:52:26;33.10;73.00
5494;DHT22;2769;49.864;8.656;2022-08-21T09:55:23;33.50;70.50
5494;DHT22;2769;49.864;8.656;2022-08-21T09:58:32;33.50;69.80
5494;DHT22;2769;49.864;8.656;2022-08-21T10:01:21;32.30;70.10
5494;DHT22;2769;49.864;8.656;2022-08-21T10:04:10;30.10;73.70
5494;DHT22;2769;49.864;8.656;2022-08-21T10:07:06;30.90;74.50
5494;DHT22;2769;49.864;8.656;2022-08-21T10:10:03;31.00;72.00
5494;DHT22;2769;49.864;8.656;2022-08-21T10:12:55;31.10;72.80
5494;DHT22;2769;49.864;8.656;2022-08-21T10:15:51;31.50;69.60
5494;DHT22;2769;49.864;8.656;2022-08-21T10:18:43;31.10;70.50
5494;DHT22;2769;49.864;8.656;2022-08-21T10:21:40;31.60;70.80
5494;DHT22;2769;49.864;8.656;2022-08-21T10:24:36;31.00;71.00
5494;DHT22;2769;49.864;8.656;2022-08-21T10:27:31;31.10;70.50
5494;DHT22;2769;49.864;8.656;2022-08-21T10:30:34;31.40;68.50
5494;DHT22;2769;49.864;8.656;2022-08-21T10:33:35;31.40;66.20
5494;DHT22;2769;49.864;8.656;2022-08-21T10:36:31;31.10;65.40
5494;DHT22;2769;49.864;8.656;2022-08-21T10:39:26;32.30;65.10
5494;DHT22;2769;49.864;8.656;2022-08-21T10:42:34;33.00;62.60
5494;DHT22;2769;49.864;8.656;2022-08-21T10:45:36;33.30;61.80
5494;DHT22;2769;49.864;8.656;2022-08-21T10:48:28;33.20;60.10
5494;DHT22;2769;49.864;8.656;2022-08-21T10:51:18;33.80;58.80
5494;DHT22;2769;49.864;8.656;2022-08-21T10:54:29;33.50;58.80
5494;DHT22;2769;49.864;8.656;2022-08-21T10:57:27;33.50;60.10
5494;DHT22;2769;49.864;8.656;2022-08-21T11:00:19;34.30;58.40
5494;DHT22;2769;49.864;8.656;2022-08-21T11:03:11;34.70;58.40
5494;DHT22;2769;49.864;8.656;2022-08-21T11:06:02;35.00;55.80
5494;DHT22;2769;49.864;8.656;2022-08-21T11:08:53;35.50;55.90
5494;DHT22;2769;49.864;8.656;2022-08-21T11:11:47;35.50;55.20
5494;DHT22;2769;49.864;8.656;2022-08-21T11:14:59;35.80;53.80
5494;DHT22;2769;49.864;8.656;2022-08-21T11:17:52;35.80;54.20
5494;DHT22;2769;49.864;8.656;2022-08-21T11:20:45;35.90;53.20
5494;DHT22;2769;49.864;8.656;2022-08-21T11:23:43;35.20;53.60
5494;DHT22;2769;49.864;8.656;2022-08-21T11:26:38;35.10;52.30
5494;DHT22;2769;49.864;8.656;2022-08-21T11:29:30;34.60;52.50
5494;DHT22;2769;49.864;8.656;2022-08-21T11:32:41;35.10;52.90
5494;DHT22;2769;49.864;8.656;2022-08-21T11:35:35;36.00;51.60
5494;DHT22;2769;49.864;8.656;2022-08-21T11:38:34;35.70;51.40
5494;DHT22;2769;49.864;8.656;2022-08-21T11:41:28;35.00;51.10
5494;DHT22;2769;49.864;8.656;2022-08-21T11:44:20;35.30;51.00
5494;DHT22;2769;49.864;8.656;2022-08-21T11:47:15;35.60;50.50
5494;DHT22;2769;49.864;8.656;2022-08-21T11:50:13;35.30;50.10
5494;DHT22;2769;49.864;8.656;2022-08-21T11:53:25;35.30;51.70
5494;DHT22;2769;49.864;8.656;2022-08-21T11:56:17;35.70;50.70
5494;DHT22;2769;49.864;8.656;2022-08-21T11:59:09;36.60;48.60
5494;DHT22;2769;49.864;8.656;2022-08-21T12:01:57;36.20;48.50
5494;DHT22;2769;49.864;8.656;2022-08-21T12:04:47;36.80;48.30
5494;DHT22;2769;49.864;8.656;2022-08-21T12:07:38;36.90;47.50
5494;DHT22;2769;49.864;8.656;2022-08-21T12:10:33;37.40;47.20
5494;DHT22;2769;49.864;8.656;2022-08-21T12:13:26;36.30;47.60
5494;DHT22;2769;49.864;8.656;2022-08-21T12:16:30;35.70;48.30
5494;DHT22;2769;49.864;8.656;2022-08-21T12:19:29;36.00;48.40
5494;DHT22;2769;49.864;8.656;2022-08-21T12:22:16;38.50;45.40
5494;DHT22;2769;49.864;8.656;2022-08-21T12:25:07;37.30;45.10
5494;DHT22;2769;49.864;8.656;2022-08-21T12:28:08;37.00;45.70
5494;DHT22;2769;49.864;8.656;2022-08-21T12:30:56;37.90;45.30
5494;DHT22;2769;49.864;8.656;2022-08-21T12:33:51;37.60;45.00
5494;DHT22;2769;49.864;8.656;2022-08-21T12:36:43;37.70;45.50
5494;DHT22;2769;49.864;8.656;2022-08-21T12:39:32;39.30;43.70
5494;DHT22;2769;49.864;8.656;2022-08-21T12:42:23;40.00;43.60
5494;DHT22;2769;49.864;8.656;2022-08-21T12:45:19;41.20;41.80
5494;DHT22;2769;49.864;8.656;2022-08-21T12:48:09;42.10;39.30
5494;DHT22;2769;49.864;8.656;2022-08-21T12:51:07;42.60;38.40
5494;DHT22;2769;49.864;8.656;2022-08-21T12:53:58;42.10;38.90
5494;DHT22;2769;49.864;8.656;2022-08-21T12:56:56;42.50;37.00
5494;DHT22;2769;49.864;8.656;2022-08-21T12:59:52;43.60;36.40
5494;DHT22;2769;49.864;8.656;2022-08-21T13:02:45;43.70;35.60
5494;DHT22;2769;49.864;8.656;2022-08-21T13:05:35;40.80;35.10
5494;DHT22;2769;49.864;8.656;2022-08-21T13:08:23;40.80;37.70
5494;DHT22;2769;49.864;8.656;2022-08-21T13:11:10;41.60;37.30
5494;DHT22;2769;49.864;8.656;2022-08-21T13:14:02;42.10;37.30
5494;DHT22;2769;49.864;8.656;2022-08-21T13:16:54;42.40;37.70
5494;DHT22;2769;49.864;8.656;2022-08-21T13:19:41;43.30;34.90
5494;DHT22;2769;49.864;8.656;2022-08-21T13:22:28;43.80;34.20
5494;DHT22;2769;49.864;8.656;2022-08-21T13:25:24;44.10;33.70
5494;DHT22;2769;49.864;8.656;2022-08-21T13:28:12;43.60;35.00
5494;DHT22;2769;49.864;8.656;2022-08-21T13:31:00;44.00;34.20
5494;DHT22;2769;49.864;8.656;2022-08-21T13:33:49;44.50;33.00
5494;DHT22;2769;49.864;8.656;2022-08-21T13:36:37;43.20;33.20
5494;DHT22;2769;49.864;8.656;2022-08-21T13:39:26;43.10;33.50
5494;DHT22;2769;49.864;8.656;2022-08-21T13:42:12;44.00;32.20
5494;DHT22;2769;49.864;8.656;2022-08-21T13:44:59;41.50;32.80
5494;DHT22;2769;49.864;8.656;2022-08-21T13:47:46;41.60;34.10
5494;DHT22;2769;49.864;8.656;2022-08-21T13:50:36;41.90;34.50
5494;DHT22;2769;49.864;8.656;2022-08-21T13:53:29;43.10;33.50
5494;DHT22;2769;49.864;8.656;2022-08-21T13:56:22;44.10;32.90
5494;DHT22;2769;49.864;8.656;2022-08-21T13:59:09;44.90;31.70
5494;DHT22;2769;49.864;8.656;2022-08-21T14:01:58;44.90;31.00
5494;DHT22;2769;49.864;8.656;2022-08-21T14:04:52;42.50;32.00
5494;DHT22;2769;49.864;8.656;2022-08-21T14:07:43;40.90;32.70
5494;DHT22;2769;49.864;8.656;2022-08-21T14:10:30;39.70;35.50
5494;DHT22;2769;49.864;8.656;2022-08-21T14:13:33;40.50;34.30
5494;DHT22;2769;49.864;8.656;2022-08-21T14:16:24;41.90;33.50
5494;DHT22;2769;49.864;8.656;2022-08-21T14:19:19;42.20;33.90
5494;DHT22;2769;49.864;8.656;2022-08-21T14:22:23;41.20;33.10
5494;DHT22;2769;49.864;8.656;2022-08-21T14:25:27;40.90;33.80
5494;DHT22;2769;49.864;8.656;2022-08-21T14:28:22;41.90;32.70
5494;DHT22;2769;49.864;8.656;2022-08-21T14:31:15;43.90;32.00
5494;DHT22;2769;49.864;8.656;2022-08-21T14:34:03;45.20;30.90
5494;DHT22;2769;49.864;8.656;2022-08-21T14:37:04;46.40;29.90
5494;DHT22;2769;49.864;8.656;2022-08-21T14:39:50;46.80;28.40
5494;DHT22;2769;49.864;8.656;2022-08-21T14:42:40;44.60;29.20
5494;DHT22;2769;49.864;8.656;2022-08-21T14:45:29;43.60;30.00
5494;DHT22;2769;49.864;8.656;2022-08-21T14:48:16;43.70;30.10
5494;DHT22;2769;49.864;8.656;2022-08-21T14:51:03;41.50;31.10
5494;DHT22;2769;49.864;8.656;2022-08-21T14:53:50;39.80;33.50
5494;DHT22;2769;49.864;8.656;2022-08-21T14:56:37;37.40;34.40
5494;DHT22;2769;49.864;8.656;2022-08-21T14:59:25;36.30;36.80
5494;DHT22;2769;49.864;8.656;2022-08-21T15:02:12;35.60;37.80
5494;DHT22;2769;49.864;8.656;2022-08-21T15:04:59;34.10;39.00
5494;DHT22;2769;49.864;8.656;2022-08-21T15:07:45;33.50;40.70
5494;DHT22;2769;49.864;8.656;2022-08-21T15:10:33;33.30;41.20
5494;DHT22;2769;49.864;8.656;2022-08-21T15:13:32;33.70;41.70
5494;DHT22;2769;49.864;8.656;2022-08-21T15:16:21;33.10;41.60
5494;DHT22;2769;49.864;8.656;2022-08-21T15:19:07;33.20;42.40
5494;DHT22;2769;49.864;8.656;2022-08-21T15:21:54;33.10;42.20
5494;DHT22;2769;49.864;8.656;2022-08-21T15:24:40;32.80;42.30
5494;DHT22;2769;49.864;8.656;2022-08-21T15:27:28;32.40;42.60
5494;DHT22;2769;49.864;8.656;2022-08-21T15:30:15;32.60;43.10
5494;DHT22;2769;49.864;8.656;2022-08-21T15:33:03;32.00;43.40
5494;DHT22;2769;49.864;8.656;2022-08-21T15:35:50;32.30;43.20
5494;DHT22;2769;49.864;8.656;2022-08-21T15:38:37;32.50;42.90
5494;DHT22;2769;49.864;8.656;2022-08-21T15:41:24;32.20;43.30
5494;DHT22;2769;49.864;8.656;2022-08-21T15:44:11;31.10;43.90
5494;DHT22;2769;49.864;8.656;2022-08-21T15:46:59;31.40;44.70
5494;DHT22;2769;49.864;8.656;2022-08-21T15:49:47;31.20;45.40
5494;DHT22;2769;49.864;8.656;2022-08-21T15:52:34;31.20;45.30
5494;DHT22;2769;49.864;8.656;2022-08-21T15:55:20;31.30;44.50
5494;DHT22;2769;49.864;8.656;2022-08-21T15:58:12;31.10;44.40
5494;DHT22;2769;49.864;8.656;2022-08-21T16:01:01;31.10;44.70
5494;DHT22;2769;49.864;8.656;2022-08-21T16:03:50;31.50;44.70
5494;DHT22;2769;49.864;8.656;2022-08-21T16:06:40;31.60;44.50
5494;DHT22;2769;49.864;8.656;2022-08-21T16:09:41;31.50;44.70
5494;DHT22;2769;49.864;8.656;2022-08-21T16:12:30;31.70;45.70
5494;DHT22;2769;49.864;8.656;2022-08-21T16:15:18;31.40;45.50
5494;DHT22;2769;49.864;8.656;2022-08-21T16:18:05;31.70;45.00
5494;DHT22;2769;49.864;8.656;2022-08-21T16:20:52;31.60;45.00
5494;DHT22;2769;49.864;8.656;2022-08-21T16:23:41;31.70;45.60
5494;DHT22;2769;49.864;8.656;2022-08-21T16:26:28;31.50;46.50
5494;DHT22;2769;49.864;8.656;2022-08-21T16:29:15;31.60;46.30
5494;DHT22;2769;49.864;8.656;2022-08-21T16:32:02;31.60;46.00
5494;DHT22;2769;49.864;8.656;2022-08-21T16:34:49;31.70;45.40
5494;DHT22;2769;49.864;8.656;2022-08-21T16:37:36;31.70;46.00
5494;DHT22;2769;49.864;8.656;2022-08-21T16:40:24;31.20;46.00
5494;DHT22;2769;49.864;8.656;2022-08-21T16:43:13;31.10;46.10
5494;DHT22;2769;49.864;8.656;2022-08-21T16:46:00;30.90;46.10
5494;DHT22;2769;49.864;8.656;2022-08-21T16:48:48;31.20;46.00
5494;DHT22;2769;49.864;8.656;2022-08-21T16:51:34;31.20;47.90
5494;DHT22;2769;49.864;8.656;2022-08-21T16:54:21;31.20;46.10
5494;DHT22;2769;49.864;8.656;2022-08-21T16:57:09;31.10;45.70
5494;DHT22;2769;49.864;8.656;2022-08-21T16:59:56;30.90;46.30
5494;DHT22;2769;49.864;8.656;2022-08-21T17:02:45;31.00;46.80
5494;DHT22;2769;49.864;8.656;2022-08-21T17:05:32;30.90;46.40
5494;DHT22;2769;49.864;8.656;2022-08-21T17:08:19;30.70;47.00
5494;DHT22;2769;49.864;8.656;2022-08-21T17:11:15;30.70;47.60
5494;DHT22;2769;49.864;8.656;2022-08-21T17:14:23;30.40;47.10
5494;DHT22;2769;49.864;8.656;2022-08-21T17:17:10;30.20;48.50
5494;DHT22;2769;49.864;8.656;2022-08-21T17:19:57;30.00;48.90
5494;DHT22;2769;49.864;8.656;2022-08-21T17:22:43;29.90;48.90
5494;DHT22;2769;49.864;8.656;2022-08-21T17:25:30;30.10;50.90
5494;DHT22;2769;49.864;8.656;2022-08-21T17:28:20;30.00;49.30
5494;DHT22;2769;49.864;8.656;2022-08-21T17:31:10;29.80;49.80
5494;DHT22;2769;49.864;8.656;2022-08-21T17:33:57;29.60;50.30
5494;DHT22;2769;49.864;8.656;2022-08-21T17:36:44;29.60;50.90
5494;DHT22;2769;49.864;8.656;2022-08-21T17:39:31;29.50;51.80
5494;DHT22;2769;49.864;8.656;2022-08-21T17:42:18;29.50;51.80
5494;DHT22;2769;49.864;8.656;2022-08-21T17:45:08;29.40;51.90
5494;DHT22;2769;49.864;8.656;2022-08-21T17:47:57;29.30;52.00
5494;DHT22;2769;49.864;8.656;2022-08-21T17:50:44;29.20;52.10
5494;DHT22;2769;49.864;8.656;2022-08-21T17:53:30;29.10;52.70
5494;DHT22;2769;49.864;8.656;2022-08-21T17:56:18;29.00;52.80
5494;DHT22;2769;49.864;8.656;2022-08-21T17:59:05;29.00;53.90
5494;DHT22;2769;49.864;8.656;2022-08-21T18:01:52;28.90;54.70
5494;DHT22;2769;49.864;8.656;2022-08-21T18:04:47;28.80;54.50
5494;DHT22;2769;49.864;8.656;2022-08-21T18:07:35;28.70;54.60
5494;DHT22;2769;49.864;8.656;2022-08-21T18:10:22;28.70;55.40
5494;DHT22;2769;49.864;8.656;2022-08-21T18:13:12;28.40;55.50
5494;DHT22;2769;49.864;8.656;2022-08-21T18:16:00;28.40;56.00
5494;DHT22;2769;49.864;8.656;2022-08-21T18:18:49;28.30;56.00
5494;DHT22;2769;49.864;8.656;2022-08-21T18:21:38;28.30;57.20
5494;DHT22;2769;49.864;8.656;2022-08-21T18:24:25;28.20;56.50
5494;DHT22;2769;49.864;8.656;2022-08-21T18:27:12;28.10;56.90
5494;DHT22;2769;49.864;8.656;2022-08-21T18:29:59;27.90;56.90